createdAt,value
2022-08-02T00:02:40.737Z,95519.44
2022-08-02T00:05:27.097Z,95514.78
2022-08-02T00:08:13.116Z,95510.06
2022-08-02T00:10:59.261Z,95521.84
2022-08-02T00:13:45.519Z,95519.91
2022-08-02T00:16:37.441Z,95521.47
2022-08-02T00:19:24.189Z,95525.69
2022-08-02T00:22:10.356Z,95521.69
2022-08-02T00:24:56.674Z,95518.41
2022-08-02T00:27:42.657Z,95503.03
2022-08-02T00:30:28.412Z,95516.97
2022-08-02T00:33:14.826Z,95516.16
2022-08-02T00:36:00.689Z,95505.44
2022-08-02T00:38:48.074Z,95515.03
2022-08-02T00:41:33.989Z,95510.34
2022-08-02T00:44:21.250Z,95501.31
2022-08-02T00:47:07.429Z,95517.69
2022-08-02T00:49:53.358Z,95507.84
2022-08-02T00:52:39.321Z,95513.03
2022-08-02T00:55:31.283Z,95509.16
2022-08-02T00:58:17.350Z,95505.31
2022-08-02T01:01:03.754Z,95508.03
2022-08-02T01:03:49.997Z,95516.16
2022-08-02T01:06:37.366Z,95491.81
2022-08-02T01:09:23.260Z,95506.56
2022-08-02T01:12:09.802Z,95497.22
2022-08-02T01:15:00.451Z,95499.94
2022-08-02T01:17:51.209Z,95508.66
2022-08-02T01:20:49.791Z,95497.16
2022-08-02T01:23:57.928Z,95507.41
2022-08-02T01:27:21.273Z,95507.13
2022-08-02T01:30:08.610Z,95500.22
2022-08-02T01:32:58.949Z,95490.63
2022-08-02T01:35:50.885Z,95505.34
2022-08-02T01:38:43.833Z,95503.66
2022-08-02T01:41:30.813Z,95507.69
2022-08-02T01:44:17.859Z,95503.84
2022-08-02T01:47:19.854Z,95504.09
2022-08-02T01:50:06.307Z,95505.56
2022-08-02T01:52:54.042Z,95498.59
2022-08-02T01:55:57.055Z,95500.75
2022-08-02T01:58:45.766Z,95489.88
2022-08-02T02:01:33.395Z,95498.81
2022-08-02T02:04:22.195Z,95506.97
2022-08-02T02:07:08.689Z,95498.63
2022-08-02T02:09:54.923Z,95505.22
2022-08-02T02:12:43.151Z,95497.81
2022-08-02T02:15:31.309Z,95507.38
2022-08-02T02:18:23.773Z,95502.97
2022-08-02T02:21:10.441Z,95512.81
2022-08-02T02:23:56.637Z,95506.72
2022-08-02T02:26:52.100Z,95500.75
2022-08-02T02:29:43.301Z,95512.50
2022-08-02T02:32:29.746Z,95518.00
2022-08-02T02:35:16.750Z,95516.34
2022-08-02T02:38:04.481Z,95513.00
2022-08-02T02:40:50.628Z,95523.69
2022-08-02T02:43:38.318Z,95522.88
2022-08-02T02:46:26.267Z,95523.38
2022-08-02T02:49:13.381Z,95512.16
2022-08-02T02:51:59.614Z,95517.94
2022-08-02T02:54:49.132Z,95529.31
2022-08-02T02:57:37.218Z,95514.50
2022-08-02T03:00:43.507Z,95521.34
2022-08-02T03:03:30.132Z,95509.25
2022-08-02T03:06:16.393Z,95527.53
2022-08-02T03:09:02.202Z,95528.09
2022-08-02T03:11:48.659Z,95524.00
2022-08-02T03:14:35.047Z,95511.06
2022-08-02T03:17:21.099Z,95530.44
2022-08-02T03:20:10.043Z,95541.31
2022-08-02T03:22:55.948Z,95546.97
2022-08-02T03:25:41.829Z,95540.38
2022-08-02T03:28:28.110Z,95540.31
2022-08-02T03:31:14.096Z,95534.88
2022-08-02T03:34:01.577Z,95540.06
2022-08-02T03:36:49.347Z,95535.94
2022-08-02T03:39:35.302Z,95535.38
2022-08-02T03:42:21.616Z,95538.59
2022-08-02T03:45:10.133Z,95524.09
2022-08-02T03:47:58.749Z,95528.97
2022-08-02T03:50:47.592Z,95538.97
2022-08-02T03:53:34.183Z,95545.66
2022-08-02T03:56:20.070Z,95535.22
2022-08-02T03:59:11.414Z,95543.91
2022-08-02T04:01:57.521Z,95557.88
2022-08-02T04:04:43.521Z,95553.72
2022-08-02T04:08:33.556Z,95554.91
2022-08-02T04:10:55.931Z,95569.56
2022-08-02T04:13:42.057Z,95569.31
2022-08-02T04:16:33.923Z,95568.75
2022-08-02T04:19:28.193Z,95560.78
2022-08-02T04:22:24.573Z,95558.06
2022-08-02T04:25:17.135Z,95563.03
2022-08-02T04:28:16.658Z,95573.66
2022-08-02T04:31:05.281Z,95566.34
2022-08-02T04:33:51.179Z,95564.75
2022-08-02T04:36:38.139Z,95548.91
2022-08-02T04:39:24.735Z,95553.81
2022-08-02T04:42:10.967Z,95564.75
2022-08-02T04:44:58.076Z,95555.50
2022-08-02T04:48:02.175Z,95573.25
2022-08-02T04:50:50.482Z,95564.59
2022-08-02T04:53:36.422Z,95560.88
2022-08-02T04:56:22.246Z,95572.66
2022-08-02T04:59:08.442Z,95557.41
2022-08-02T05:01:54.613Z,95561.03
2022-08-02T05:04:40.775Z,95560.06
2022-08-02T05:07:26.802Z,95570.25
2022-08-02T05:10:15.252Z,95576.91
2022-08-02T05:13:01.184Z,95568.47
2022-08-02T05:15:50.640Z,95567.66
2022-08-02T05:18:36.802Z,95568.28
2022-08-02T05:21:22.872Z,95562.34
2022-08-02T05:24:09.764Z,95568.75
2022-08-02T05:26:55.574Z,95583.84
2022-08-02T05:29:41.655Z,95560.31
2022-08-02T05:32:50.762Z,95567.56
2022-08-02T05:35:36.914Z,95567.56
2022-08-02T05:38:26.025Z,95562.50
2022-08-02T05:41:12.476Z,95562.75
2022-08-02T05:43:58.305Z,95566.72
2022-08-02T05:46:44.182Z,95578.25
2022-08-02T05:49:30.243Z,95579.38
2022-08-02T05:52:18.418Z,95571.50
2022-08-02T05:55:13.434Z,95579.22
2022-08-02T05:58:26.911Z,95579.94
2022-08-02T06:01:14.467Z,95595.44
2022-08-02T06:04:01.142Z,95586.78
2022-08-02T06:06:50.178Z,95587.41
2022-08-02T06:09:36.272Z,95588.00
2022-08-02T06:12:25.880Z,95591.91
2022-08-02T06:15:15.075Z,95580.19
2022-08-02T06:18:02.255Z,95580.03
2022-08-02T06:20:50.432Z,95586.09
2022-08-02T06:23:42.207Z,95588.88
2022-08-02T06:26:44.972Z,95588.13
2022-08-02T06:29:37.038Z,95589.84
2022-08-02T06:32:26.879Z,95585.00
2022-08-02T06:35:13.475Z,95579.22
2022-08-02T06:38:03.182Z,95587.53
2022-08-02T06:40:56.564Z,95581.50
2022-08-02T06:44:27.390Z,95590.31
2022-08-02T13:15:49.265Z,95452.47
2022-08-02T13:18:19.469Z,95452.44
2022-08-02T13:21:06.890Z,95448.03
2022-08-02T13:23:54.693Z,95453.78
2022-08-02T13:26:41.630Z,95447.38
2022-08-02T13:29:27.740Z,95441.00
2022-08-02T13:32:14.523Z,95443.31
2022-08-02T13:35:01.288Z,95447.31
2022-08-02T13:37:48.268Z,95449.97
2022-08-02T13:40:49.232Z,95451.53
2022-08-02T13:43:53.404Z,95445.81
2022-08-02T13:46:45.499Z,95446.59
2022-08-02T13:49:50.566Z,95442.19
2022-08-02T13:52:37.960Z,95444.66
2022-08-02T13:55:24.415Z,95452.78
2022-08-02T13:58:10.664Z,95441.00
2022-08-02T14:00:56.767Z,95436.34
2022-08-02T14:04:07.497Z,95421.38
2022-08-02T14:06:49.436Z,95449.44
2022-08-02T14:09:38.327Z,95442.38
2022-08-02T14:12:26.513Z,95439.84
2022-08-02T14:15:12.449Z,95426.09
2022-08-02T14:17:58.425Z,95442.94
2022-08-02T14:20:45.652Z,95431.63
2022-08-02T14:23:50.121Z,95442.25
2022-08-02T14:26:36.748Z,95427.78
2022-08-02T14:29:23.074Z,95427.94
2022-08-02T14:32:08.979Z,95437.84
2022-08-02T14:34:56.348Z,95435.84
2022-08-02T14:37:42.963Z,95426.88
2022-08-02T14:40:31.644Z,95420.97
2022-08-02T14:43:37.471Z,95434.63
2022-08-02T14:46:24.397Z,95423.81
2022-08-02T14:49:11.354Z,95433.03
2022-08-02T14:52:01.693Z,95430.66
2022-08-02T14:54:48.531Z,95436.75
2022-08-02T14:57:35.310Z,95413.81
2022-08-02T15:00:22.264Z,95435.38
2022-08-02T15:03:10.059Z,95424.66
2022-08-02T15:05:56.871Z,95440.22
2022-08-02T15:08:43.289Z,95440.13
2022-08-02T15:11:30.190Z,95438.19
2022-08-02T15:14:35.692Z,95437.16
2022-08-02T15:17:22.064Z,95442.34
2022-08-02T15:20:24.435Z,95447.25
2022-08-02T15:23:13.803Z,95444.41
2022-08-02T15:25:59.885Z,95431.47
2022-08-02T15:28:46.066Z,95433.09
2022-08-02T15:31:33.510Z,95435.47
2022-08-02T15:34:19.735Z,95428.56
2022-08-02T15:37:05.665Z,95430.06
2022-08-02T15:39:51.622Z,95430.03
2022-08-02T15:42:37.568Z,95428.47
2022-08-02T15:45:25.511Z,95433.41
2022-08-02T15:48:12.402Z,95427.81
2022-08-02T15:50:58.666Z,95434.66
2022-08-02T15:53:44.699Z,95433.94
2022-08-02T15:56:35.505Z,95441.44
2022-08-02T15:59:21.446Z,95428.38
2022-08-02T16:02:08.045Z,95437.69
2022-08-02T16:04:54.140Z,95443.63
2022-08-02T16:07:41.266Z,95438.59
2022-08-02T16:10:27.683Z,95453.94
2022-08-02T16:13:32.396Z,95446.66
2022-08-02T16:16:18.554Z,95444.38
2022-08-02T16:19:38.764Z,95446.81
2022-08-02T16:22:12.493Z,95432.66
2022-08-02T16:24:58.857Z,95455.13
2022-08-02T16:28:06.058Z,95436.84
2022-08-02T16:31:09.901Z,95441.53
2022-08-02T16:33:57.410Z,95439.69
2022-08-02T16:36:44.573Z,95450.44
2022-08-02T16:39:30.642Z,95454.00
2022-08-02T16:42:16.783Z,95458.66
2022-08-02T16:45:11.221Z,95444.28
2022-08-02T16:48:03.820Z,95456.81
2022-08-02T16:50:51.689Z,95466.03
2022-08-02T16:53:38.756Z,95461.41
2022-08-02T16:56:43.669Z,95465.63
2022-08-02T16:59:42.028Z,95469.31
2022-08-02T17:02:29.588Z,95461.28
2022-08-02T17:05:15.581Z,95482.75
2022-08-02T17:08:15.613Z,95484.31
2022-08-02T17:11:03.739Z,95480.56
2022-08-02T17:13:50.240Z,95489.47
2022-08-02T17:16:36.297Z,95486.53
2022-08-02T17:19:22.405Z,95475.22
2022-08-02T17:22:10.269Z,95497.94
2022-08-02T17:24:59.339Z,95489.09
2022-08-02T17:27:46.187Z,95486.31
2022-08-02T17:30:32.118Z,95496.06
2022-08-02T17:33:18.544Z,95500.97
2022-08-02T17:36:05.057Z,95492.63
2022-08-02T17:38:51.937Z,95496.44
2022-08-02T17:41:49.275Z,95509.59
2022-08-02T17:44:38.258Z,95498.81
2022-08-02T17:47:30.695Z,95496.16
2022-08-02T17:50:17.459Z,95506.06
2022-08-02T17:53:06.428Z,95518.31
2022-08-02T17:55:52.529Z,95508.00
2022-08-02T17:58:38.312Z,95507.38
2022-08-02T18:04:44.311Z,95520.66
2022-08-02T18:07:49.080Z,95522.50
2022-08-02T18:10:39.385Z,95533.00
2022-08-02T18:13:25.356Z,95527.81
2022-08-02T18:16:21.360Z,95532.28
2022-08-02T18:19:16.608Z,95528.41
2022-08-02T18:22:03.734Z,95534.94
2022-08-02T18:24:49.401Z,95537.19
2022-08-02T18:27:35.833Z,95534.53
2022-08-02T18:30:28.204Z,95540.13
2022-08-02T18:33:56.861Z,95530.69
2022-08-02T18:36:25.113Z,95550.78
2022-08-02T18:39:11.625Z,95525.25
2022-08-02T18:41:58.038Z,95559.44
2022-08-02T18:44:45.059Z,95563.91
2022-08-02T18:47:33.052Z,95566.97
2022-08-02T18:50:20.039Z,95551.53
2022-08-02T18:53:06.874Z,95572.34
2022-08-02T18:55:59.128Z,95566.91
2022-08-02T18:58:49.270Z,95573.31
2022-08-02T19:01:45.028Z,95581.34
2022-08-02T19:04:34.769Z,95580.94
2022-08-02T19:10:27.314Z,95569.38
2022-08-02T19:13:17.342Z,95583.34
2022-08-02T19:16:03.754Z,95574.38
2022-08-02T19:18:51.243Z,95587.00
2022-08-02T19:22:17.847Z,95583.03
2022-08-02T19:24:43.311Z,95603.34
2022-08-02T19:27:32.625Z,95604.00
2022-08-02T19:30:21.326Z,95614.78
2022-08-02T19:33:11.879Z,95617.81
2022-08-02T19:36:11.769Z,95621.19
2022-08-02T19:38:59.392Z,95601.28
2022-08-02T19:41:46.990Z,95615.03
2022-08-02T19:44:33.086Z,95622.78
2022-08-02T19:47:19.660Z,95620.44
2022-08-02T19:50:06.787Z,95620.47
2022-08-02T19:52:55.679Z,95626.56
2022-08-02T19:55:59.563Z,95621.69
2022-08-02T19:58:48.034Z,95604.56
2022-08-02T20:01:38.802Z,95606.72
2022-08-02T20:04:27.441Z,95616.44
2022-08-02T20:07:13.583Z,95621.13
2022-08-02T20:10:12.104Z,95610.00
2022-08-02T20:12:57.957Z,95623.41
2022-08-02T20:15:56.030Z,95605.19
2022-08-02T20:18:43.093Z,95613.13
2022-08-02T20:21:36.060Z,95599.50
2022-08-02T20:24:26.561Z,95609.38
2022-08-02T20:27:16.905Z,95613.78
2022-08-02T20:30:08.171Z,95614.91
2022-08-02T20:33:02.549Z,95605.66
2022-08-02T20:36:04.770Z,95610.41
2022-08-02T20:38:51.445Z,95617.25
2022-08-02T20:41:45.766Z,95616.25
2022-08-02T20:44:34.518Z,95614.91
2022-08-02T20:47:38.849Z,95593.63
2022-08-02T20:50:44.658Z,95595.84
2022-08-02T20:53:31.317Z,95594.78
2022-08-02T20:56:17.890Z,95625.19
2022-08-02T20:59:15.624Z,95605.56
2022-08-02T21:02:02.285Z,95610.47
2022-08-02T21:04:48.603Z,95615.69
2022-08-02T21:07:37.186Z,95610.53
2022-08-02T21:10:24.192Z,95620.44
2022-08-02T21:13:18.579Z,95622.34
2022-08-02T21:16:08.908Z,95601.31
2022-08-02T21:18:59.977Z,95623.00
2022-08-02T21:21:46.619Z,95623.28
2022-08-02T21:24:33.034Z,95626.59
2022-08-02T21:27:53.198Z,95612.06
2022-08-02T21:30:26.922Z,95604.19
2022-08-02T21:33:22.421Z,95620.88
2022-08-02T21:36:09.619Z,95625.53
2022-08-02T21:38:57.981Z,95631.31
2022-08-02T21:41:46.632Z,95628.59
2022-08-02T21:44:32.977Z,95638.47
2022-08-02T21:47:27.666Z,95630.00
2022-08-02T21:50:16.297Z,95632.75
2022-08-02T21:53:02.212Z,95635.50
2022-08-02T21:56:00.167Z,95640.16
2022-08-02T21:58:47.161Z,95642.88
2022-08-02T22:01:35.131Z,95643.97
2022-08-02T22:04:21.999Z,95644.53
2022-08-02T22:07:08.220Z,95641.22
2022-08-02T22:09:55.368Z,95648.09
2022-08-02T22:12:41.564Z,95644.50
2022-08-02T22:15:36.030Z,95644.25
2022-08-02T22:18:29.442Z,95654.34
2022-08-02T22:21:16.925Z,95636.56
2022-08-02T22:24:05.438Z,95639.31
2022-08-02T22:26:59.029Z,95646.13
2022-08-02T22:29:44.812Z,95645.56
2022-08-02T22:32:51.037Z,95635.69
2022-08-02T22:35:37.473Z,95636.22
2022-08-02T22:38:26.014Z,95645.25
2022-08-02T22:41:15.749Z,95655.91
2022-08-02T22:44:02.164Z,95650.13
2022-08-02T22:46:50.298Z,95655.06
2022-08-02T22:49:58.979Z,95654.75
2022-08-02T22:52:46.839Z,95642.97
2022-08-02T22:55:41.277Z,95638.53
2022-08-02T22:58:27.843Z,95652.78
2022-08-02T22:58:41.486Z,95497.06
2022-08-02T22:58:58.415Z,95567.31
2022-08-02T23:01:14.485Z,95643.97
2022-08-02T23:04:00.493Z,95646.19
2022-08-02T23:06:46.506Z,95660.34
2022-08-02T23:09:32.412Z,95654.53
2022-08-02T23:12:21.465Z,95669.84
2022-08-02T23:15:08.468Z,95645.72
2022-08-02T23:18:13.069Z,95659.41
2022-08-02T23:20:59.909Z,95653.34
2022-08-02T23:23:45.864Z,95670.28
2022-08-02T23:26:31.696Z,95664.78
2022-08-02T23:29:19.562Z,95668.03
2022-08-02T23:32:05.515Z,95669.34
2022-08-02T23:34:52.902Z,95666.34
2022-08-02T23:38:00.110Z,95659.78
2022-08-02T23:40:45.209Z,95638.06
2022-08-02T23:43:31.163Z,95665.19
2022-08-02T23:46:17.146Z,95661.28
2022-08-02T23:49:03.392Z,95661.53
2022-08-02T23:51:50.661Z,95663.69
2022-08-02T23:54:36.970Z,95661.75
2022-08-02T23:57:23.279Z,95655.44
